Rockhampton Airport
YBRK : now visible

Airfield :











YOU CAN JOIN US ON...

 
LOGIN :

Register | Disclaimer

   EN    FR    IT 

 









Legend :    VFR   Marginal VFR   IFR   Intensive IFR   Very Intensive IFR
Visi :
Ceiling :
>= 8 km
>= 3000ft
5 to 8 km
1000 to 3000 ft
1500m to 5 km
500 to 1000 ft
800 to 1500m
200 to 500 ft
< 800m
< 200 ft
Symbols :   Thunderstorms  Fog  Heavy snow  Heavy precipitations  Wind > 20 kt






- Airport Elevation : 34 ft
- IATA code : ROK


YBRK - Rockhampton

CURRENT METAR :
  • 030230Z AUTO 09011KT 9999 // BKN047 BKN052 33/20 Q1007

EXPIRED METARs :
  • 030200Z AUTO 10010KT 9999 // BKN051 33/19 Q1007
  • 030130Z AUTO 11010KT 9999 // SCT039 SCT045 32/20 Q1007
  • 030100Z AUTO 11011KT 9999 // SCT039 32/19 Q1008
  • 030030Z AUTO 14009KT 090V160 9999 // SCT037 31/20 Q1008
  • 030000Z AUTO 12008KT 9999 // SCT033 BKN040 30/20 Q1009

TAF TAF YBRK
Valid from the 03 at 00:00 until the 04 at 00:00 UTC


022312Z 0300/0400 11012KT 9999 SCT030
FM031200 11010KT 9999 BKN020
FM031500 12009KT 9999 BKN015
YBBB FIR / Oceania



MET'MAP, your aeronautical weather chart ! - Copyright ORBIFLY December 2007 - Disclaimer

ORBIFLY MET'MAP TEAM :

Programming & Development : Alexandra Zaïnal
Concept & original design : Baudouin d'Aumeries
Assistance for programming : Marc-Olivier Méhu
Technical & hardware support : Manuel Goepfert

Contact : metmap@orbifly.com




SOURCES & CREDITS :

   NOAA       Earth
Advisory